Time;durP1;ratioP1;P1;durP2;ratioP2;P2;SDS_P1;SDS_P2;PMS_P1;PMS_P2;Temp;Humidity;BMP_temperature;BMP_pressure;BME280_temperature;BME280_humidity;BME280_pressure;Samples;Min_cycle;Max_cycle;Signal;HPM_P1;HPM_P2
2023/04/25 00:02:05;;;;;;;;;3.00;2.00;;;;;8.10;72.96;101081.59;4994837;28;10668;-66
2023/04/25 00:04:33;;;;;;;;;2.00;1.25;;;;;8.14;72.46;101079.38;4976642;28;10716;-66
2023/04/25 00:07:03;;;;;;;;;2.25;2.00;;;;;8.11;72.89;101085.94;4989564;28;10738;-67
2023/04/25 00:09:30;;;;;;;;;2.00;2.00;;;;;8.11;72.48;101087.81;4975007;28;10663;-66
2023/04/25 00:11:56;;;;;;;;;2.00;2.00;;;;;8.09;72.75;101087.13;4999244;28;11447;-66
2023/04/25 00:14:23;;;;;;;;;5.00;3.50;;;;;8.03;72.10;101077.09;4980850;28;10720;-66
2023/04/25 00:16:51;;;;;;;;;2.00;2.00;;;;;7.97;72.04;101083.13;4980396;28;11300;-66
2023/04/25 00:19:18;;;;;;;;;4.00;4.00;;;;;7.99;72.50;101083.81;4996146;28;10697;-67
2023/04/25 00:21:46;;;;;;;;;5.50;1.75;;;;;8.00;72.21;101080.94;4991190;28;10735;-66
2023/04/25 00:24:12;;;;;;;;;2.00;2.00;;;;;8.03;72.04;101082.47;4979108;28;10838;-67
2023/04/25 00:26:42;;;;;;;;;4.00;3.00;;;;;8.05;72.45;101089.31;4996858;28;10809;-67
2023/04/25 00:29:08;;;;;;;;;4.75;4.75;;;;;8.06;72.79;101087.47;4985545;28;10952;-66
2023/04/25 00:31:35;;;;;;;;;1.75;1.75;;;;;8.06;72.98;101095.50;4979060;28;10676;-67
2023/04/25 00:34:01;;;;;;;;;4.50;2.00;;;;;7.97;71.72;101089.31;5000737;28;10739;-67
2023/04/25 00:36:28;;;;;;;;;1.75;1.75;;;;;7.94;72.15;101089.69;4994095;28;11619;-67
2023/04/25 00:38:55;;;;;;;;;1.50;1.25;;;;;7.90;72.24;101097.25;5003875;28;10763;-66
2023/04/25 00:41:22;;;;;;;;;2.50;1.00;;;;;7.90;71.65;101093.72;4989249;28;10743;-66
2023/04/25 00:43:49;;;;;;;;;1.00;1.00;;;;;7.86;72.08;101095.91;4986498;28;10733;-66
2023/04/25 00:46:16;;;;;;;;;1.00;1.00;;;;;7.84;71.53;101100.59;4982824;28;11277;-67
2023/04/25 00:48:42;;;;;;;;;2.00;2.00;;;;;7.81;71.32;101095.56;4972383;28;10609;-67
2023/04/25 00:51:15;;;;;;;;;5.00;2.25;;;;;7.78;71.33;101098.59;4980975;28;10847;-65
2023/04/25 00:53:42;;;;;;;;;1.75;1.00;;;;;7.81;70.99;101098.22;5000967;28;10817;-68
2023/04/25 00:56:08;;;;;;;;;1.75;1.00;;;;;7.82;71.47;101097.25;4986008;28;10850;-65
2023/04/25 00:58:37;;;;;;;;;5.00;2.75;;;;;7.80;71.45;101103.78;4980109;28;10869;-65
2023/04/25 01:01:04;;;;;;;;;1.50;1.00;;;;;7.83;70.67;101103.44;4984935;28;10771;-65
2023/04/25 01:03:32;;;;;;;;;2.00;1.00;;;;;7.86;71.28;101103.13;4979450;28;10896;-66
2023/04/25 01:05:59;;;;;;;;;5.00;1.00;;;;;7.87;71.60;101102.09;4984955;28;10799;-67
2023/04/25 01:08:26;;;;;;;;;4.25;4.00;;;;;7.90;71.27;101101.75;4999898;28;10776;-66
2023/04/25 01:10:52;;;;;;;;;2.50;2.00;;;;;7.88;71.11;101096.56;4983422;28;11559;-66
2023/04/25 01:13:19;;;;;;;;;4.00;1.50;;;;;7.88;70.93;101099.22;4980366;28;10936;-67
2023/04/25 01:15:46;;;;;;;;;2.50;2.00;;;;;7.87;71.06;101102.09;4962636;28;10839;-66
2023/04/25 01:18:12;;;;;;;;;2.00;2.00;;;;;7.87;71.45;101110.97;4988858;28;10840;-66
2023/04/25 01:20:41;;;;;;;;;2.00;2.00;;;;;7.85;71.33;101104.94;4977682;28;10913;-67
2023/04/25 01:23:08;;;;;;;;;2.00;2.00;;;;;7.82;71.28;101107.09;4987721;28;10813;-66
2023/04/25 01:25:36;;;;;;;;;1.00;1.00;;;;;7.81;72.00;101116.16;4971574;28;10889;-66
2023/04/25 01:28:02;;;;;;;;;4.00;1.25;;;;;7.80;71.83;101109.97;4978869;28;10605;-66
2023/04/25 01:30:30;;;;;;;;;2.00;2.00;;;;;7.78;72.06;101117.34;4993322;28;10811;-66
2023/04/25 01:32:58;;;;;;;;;2.00;2.00;;;;;7.76;72.43;101114.00;4969122;28;10946;-66
2023/04/25 01:35:27;;;;;;;;;5.00;3.75;;;;;7.75;71.93;101117.69;4998961;28;10868;-66
2023/04/25 01:37:54;;;;;;;;;2.25;2.25;;;;;7.73;71.79;101117.00;4974064;28;10978;-66
2023/04/25 01:40:22;;;;;;;;;4.00;2.00;;;;;7.61;71.24;101118.34;5000756;28;10796;-68
2023/04/25 01:42:50;;;;;;;;;4.25;2.25;;;;;7.53;71.12;101116.50;4987310;28;10916;-68
2023/04/25 01:45:17;;;;;;;;;1.00;1.00;;;;;7.50;71.32;101114.19;4964913;28;10916;-66
2023/04/25 01:47:48;;;;;;;;;4.25;2.00;;;;;7.48;71.36;101124.22;4974075;28;10785;-66
2023/04/25 01:50:17;;;;;;;;;3.25;2.00;;;;;7.49;71.44;101127.72;4974150;28;10846;-66
2023/04/25 01:52:45;;;;;;;;;1.50;1.50;;;;;7.49;71.20;101125.06;4978422;28;12032;-66
2023/04/25 01:55:12;;;;;;;;;1.50;1.50;;;;;7.46;71.05;101134.28;4971956;28;10724;-65
2023/04/25 01:57:48;;;;;;;;;2.00;2.00;;;;;7.52;71.71;101127.41;4979847;28;10824;-66
2023/04/25 02:00:15;;;;;;;;;0.50;0.50;;;;;7.56;71.66;101132.25;4970870;28;10881;-66
2023/04/25 02:02:41;;;;;;;;;2.00;2.00;;;;;7.57;71.79;101131.25;4997656;28;10809;-66
2023/04/25 02:05:21;;;;;;;;;4.25;2.00;;;;;7.55;71.15;101127.06;4938709;28;11620;-65
2023/04/25 02:07:48;;;;;;;;;4.00;1.00;;;;;7.54;71.56;101136.13;4984244;28;11681;-66
2023/04/25 02:10:14;;;;;;;;;2.25;1.25;;;;;7.55;71.42;101121.72;4977828;28;10883;-66
2023/04/25 02:13:01;;;;;;;;;1.75;1.75;;;;;7.58;70.99;101134.78;4972055;28;10766;-67
2023/04/25 02:15:43;;;;;;;;;1.75;1.00;;;;;7.56;71.30;101139.47;4994891;28;10832;-67
2023/04/25 02:18:16;;;;;;;;;3.50;1.00;;;;;7.55;71.42;101135.09;4978398;28;10972;-67
2023/04/25 02:20:44;;;;;;;;;2.00;1.00;;;;;7.57;71.03;101133.09;4963711;28;10957;-67
2023/04/25 02:23:10;;;;;;;;;1.00;1.00;;;;;7.57;70.50;101133.09;4985531;28;10808;-67
2023/04/25 02:25:37;;;;;;;;;0.75;0.75;;;;;7.58;70.59;101132.94;4957221;28;10739;-66
2023/04/25 02:28:03;;;;;;;;;0.50;0.50;;;;;7.61;70.57;101134.44;4966973;28;10930;-66
2023/04/25 02:30:30;;;;;;;;;2.00;1.00;;;;;7.64;70.55;101132.25;4975694;28;10744;-65
2023/04/25 02:32:57;;;;;;;;;1.00;1.00;;;;;7.68;70.50;101143.47;4976910;28;11636;-65
2023/04/25 02:35:23;;;;;;;;;0.75;0.00;;;;;7.67;70.33;101152.53;4980181;28;10735;-67
2023/04/25 02:37:53;;;;;;;;;0.75;0.75;;;;;7.67;70.81;101152.53;4973427;28;10740;-66
2023/04/25 02:40:19;;;;;;;;;1.00;1.00;;;;;7.60;70.37;101154.19;4989282;28;10860;-66
2023/04/25 02:42:46;;;;;;;;;1.00;1.00;;;;;7.47;70.29;101162.72;5001578;28;10661;-67
2023/04/25 02:45:12;;;;;;;;;1.75;1.25;;;;;7.28;69.96;101163.03;4989468;28;10875;-67
2023/04/25 02:47:39;;;;;;;;;4.25;0.75;;;;;7.17;68.88;101162.34;4977575;28;10815;-66
2023/04/25 02:50:06;;;;;;;;;1.25;1.25;;;;;7.17;69.92;101162.34;5005333;28;10982;-67
2023/04/25 02:52:33;;;;;;;;;1.50;1.50;;;;;7.15;67.92;101163.50;5008122;28;10909;-66
2023/04/25 02:55:13;;;;;;;;;1.25;1.25;;;;;7.15;69.48;101152.81;4986897;28;10898;-66
2023/04/25 02:57:39;;;;;;;;;1.50;1.00;;;;;7.17;69.49;101146.28;5003324;28;10901;-67
2023/04/25 03:00:11;;;;;;;;;2.75;1.00;;;;;7.22;70.05;101143.13;4980907;28;10967;-67
2023/04/25 03:02:38;;;;;;;;;0.75;0.75;;;;;7.23;69.67;101146.63;4975193;28;11108;-67
2023/04/25 03:05:05;;;;;;;;;1.75;1.75;;;;;7.28;70.20;101153.16;4991097;28;10682;-67
2023/04/25 03:07:32;;;;;;;;;0.75;0.75;;;;;7.30;69.63;101151.16;4985468;28;10976;-67
2023/04/25 03:09:59;;;;;;;;;1.00;1.00;;;;;7.34;69.58;101152.50;4981852;28;11033;-66
2023/04/25 03:12:27;;;;;;;;;1.00;1.00;;;;;7.37;69.56;101152.19;4978540;28;10957;-67
2023/04/25 03:14:53;;;;;;;;;1.00;1.00;;;;;7.40;69.47;101159.03;4995463;28;10957;-67
2023/04/25 03:17:20;;;;;;;;;2.00;2.00;;;;;7.40;69.89;101167.06;5002423;28;10842;-67
2023/04/25 03:19:48;;;;;;;;;1.00;1.00;;;;;7.36;69.88;101160.38;4962744;28;10796;-66
2023/04/25 03:22:15;;;;;;;;;4.00;1.00;;;;;7.26;69.13;101175.75;4970602;28;10762;-66
2023/04/25 03:24:41;;;;;;;;;0.00;0.00;;;;;7.24;69.04;101173.22;4990426;28;11020;-65
2023/04/25 03:27:08;;;;;;;;;2.00;1.00;;;;;7.15;68.50;101183.09;4967146;28;10957;-66
2023/04/25 03:29:35;;;;;;;;;1.00;1.00;;;;;7.13;68.18;101186.91;4993148;28;10894;-67
2023/04/25 03:32:03;;;;;;;;;2.00;2.00;;;;;7.07;67.96;101180.38;4965810;28;10902;-67
2023/04/25 03:34:30;;;;;;;;;0.50;0.00;;;;;6.90;67.06;101186.69;4976769;28;10992;-66
2023/04/25 03:36:56;;;;;;;;;2.00;0.00;;;;;6.79;68.21;101190.50;4977482;28;10894;-67
2023/04/25 03:39:23;;;;;;;;;0.00;0.00;;;;;6.55;68.69;101193.88;4964914;28;12287;-66
2023/04/25 03:41:51;;;;;;;;;1.50;1.00;;;;;6.48;68.58;101186.66;4980331;28;10816;-66
2023/04/25 03:44:19;;;;;;;;;2.00;0.75;;;;;6.47;69.53;101191.16;4983041;28;10854;-66
2023/04/25 03:46:46;;;;;;;;;1.00;1.00;;;;;6.59;70.33;101189.06;5010917;28;11076;-66
2023/04/25 03:49:13;;;;;;;;;0.50;0.50;;;;;6.50;69.45;101188.19;4987090;28;10959;-66
2023/04/25 03:52:00;;;;;;;;;1.00;0.00;;;;;6.53;69.48;101189.72;4973688;28;10921;-66
2023/04/25 03:54:31;;;;;;;;;1.00;0.00;;;;;6.52;69.88;101194.19;4981355;28;11016;-66
2023/04/25 03:57:04;;;;;;;;;1.50;0.75;;;;;6.54;69.88;101192.22;4968162;28;11073;-66
2023/04/25 03:59:33;;;;;;;;;1.00;1.00;;;;;6.56;69.96;101190.25;4996403;28;11054;-66
2023/04/25 04:02:00;;;;;;;;;0.50;0.50;;;;;6.59;70.04;101192.56;5011832;28;11047;-66
2023/04/25 04:04:27;;;;;;;;;1.00;1.00;;;;;6.61;70.13;101198.63;4980421;28;11061;-68
2023/04/25 04:06:55;;;;;;;;;1.00;1.00;;;;;6.65;69.89;101193.78;4980012;28;10901;-66
2023/04/25 04:09:25;;;;;;;;;1.00;1.00;;;;;6.69;70.14;101195.16;4951440;28;11072;-67
2023/04/25 04:11:53;;;;;;;;;1.00;1.00;;;;;6.73;69.94;101193.00;4983544;28;11130;-66
2023/04/25 04:14:19;;;;;;;;;0.00;0.00;;;;;6.76;69.38;101203.34;4969108;28;11079;-66
2023/04/25 04:16:48;;;;;;;;;1.00;1.00;;;;;6.81;69.12;101207.25;4983357;28;10946;-66
2023/04/25 04:19:14;;;;;;;;;0.25;0.00;;;;;6.81;69.79;101207.25;4961679;28;11729;-65
2023/04/25 04:21:46;;;;;;;;;1.00;1.00;;;;;6.82;69.36;101219.59;4996098;28;10809;-66
2023/04/25 04:24:13;;;;;;;;;1.00;1.00;;;;;6.82;69.80;101230.31;4991212;28;11009;-68
2023/04/25 04:26:50;;;;;;;;;1.00;1.00;;;;;6.82;69.71;101233.00;4967364;28;11620;-66
2023/04/25 04:29:36;;;;;;;;;1.00;1.00;;;;;6.81;69.87;101238.50;4989807;28;10880;-66
2023/04/25 04:32:13;;;;;;;;;2.00;1.00;;;;;6.76;70.26;101235.44;4981066;28;11892;-66
2023/04/25 04:34:41;;;;;;;;;0.25;0.25;;;;;6.73;70.58;101231.28;4994504;28;11070;-66
2023/04/25 04:37:10;;;;;;;;;1.00;1.00;;;;;6.76;71.30;101225.59;4986315;28;11122;-66
2023/04/25 04:39:36;;;;;;;;;0.00;0.00;;;;;6.78;71.08;101220.94;4993496;28;10963;-66
2023/04/25 04:42:11;;;;;;;;;0.50;0.50;;;;;6.79;71.21;101225.28;4976330;28;10974;-66
2023/04/25 04:44:46;;;;;;;;;1.00;1.00;;;;;6.82;71.09;101226.81;4949736;28;10833;-69
2023/04/25 04:47:25;;;;;;;;;0.50;0.50;;;;;6.86;71.43;101231.66;4977187;28;10973;-67
2023/04/25 04:50:11;;;;;;;;;0.00;0.00;;;;;6.89;71.47;101223.31;4978914;28;10864;-67
2023/04/25 04:52:57;;;;;;;;;0.50;0.50;;;;;6.93;71.24;101226.53;4981580;28;10946;-67
2023/04/25 04:55:44;;;;;;;;;0.75;0.75;;;;;6.94;71.29;101239.72;5004633;23;11094;-69
2023/04/25 04:58:39;;;;;;;;;1.00;1.00;;;;;6.98;71.39;101234.91;4942876;28;10945;-69
2023/04/25 05:01:25;;;;;;;;;1.00;1.00;;;;;7.00;72.03;101235.56;4985768;28;10970;-69
2023/04/25 05:03:59;;;;;;;;;1.00;1.00;;;;;7.00;72.03;101243.59;4982218;28;11039;-68
2023/04/25 05:06:56;;;;;;;;;0.00;0.00;;;;;7.04;72.52;101247.63;4999016;28;10976;-69
2023/04/25 05:09:25;;;;;;;;;4.00;2.00;;;;;7.06;71.97;101245.63;5018114;28;10901;-69
2023/04/25 05:12:15;;;;;;;;;1.50;1.50;;;;;7.09;72.08;101249.81;4989838;28;10887;-69
2023/04/25 05:14:58;;;;;;;;;1.00;1.00;;;;;7.11;72.08;101253.19;4989237;28;10840;-69
2023/04/25 05:17:30;;;;;;;;;0.75;0.75;;;;;7.17;72.06;101258.75;5003586;28;10916;-70
2023/04/25 05:20:35;;;;;;;;;3.50;1.00;;;;;7.44;71.91;101260.31;5013797;28;10855;-69
2023/04/25 05:23:22;;;;;;;;;2.00;2.00;;;;;7.66;71.35;101263.41;4998907;28;11069;-69
2023/04/25 05:26:13;;;;;;;;;3.75;1.75;;;;;7.82;70.67;101267.91;4976743;28;10970;-70
2023/04/25 05:28:51;;;;;;;;;1.25;1.00;;;;;7.93;69.69;101262.22;4995226;28;10815;-69
2023/04/25 05:31:37;;;;;;;;;2.00;2.00;;;;;7.88;69.67;101269.94;5001677;28;10725;-70
2023/04/25 05:34:09;;;;;;;;;1.00;1.00;;;;;7.78;69.61;101272.78;4990082;28;10832;-68
2023/04/25 05:36:48;;;;;;;;;1.00;1.00;;;;;7.68;69.59;101274.75;4992286;28;10692;-68
2023/04/25 05:39:16;;;;;;;;;1.75;1.75;;;;;7.61;70.02;101282.63;5018954;28;10969;-70
2023/04/25 05:42:01;;;;;;;;;2.50;2.00;;;;;7.55;70.20;101283.28;5010515;28;10996;-69
2023/04/25 05:44:48;;;;;;;;;5.00;3.75;;;;;7.49;70.37;101285.75;5020668;28;11596;-70
2023/04/25 05:47:35;;;;;;;;;4.00;1.00;;;;;7.41;70.36;101299.97;4975768;28;10977;-68
2023/04/25 05:50:16;;;;;;;;;4.00;4.00;;;;;7.40;70.41;101306.34;4991296;28;10871;-69
2023/04/25 05:52:50;;;;;;;;;3.25;1.00;;;;;7.41;70.74;101306.19;5013089;28;10873;-70
2023/04/25 05:55:24;;;;;;;;;1.75;1.75;;;;;7.55;70.88;101310.06;4980209;28;10883;-71
2023/04/25 05:57:51;;;;;;;;;1.75;1.75;;;;;7.70;70.67;101302.25;5016243;28;10850;-68
2023/04/25 06:00:18;;;;;;;;;2.25;2.25;;;;;7.78;70.16;101310.31;5003959;28;10805;-70
2023/04/25 06:02:48;;;;;;;;;2.00;2.00;;;;;7.88;68.97;101308.31;4982884;28;10983;-68
2023/04/25 06:05:15;;;;;;;;;4.00;1.50;;;;;8.07;68.35;101317.06;4985853;28;10935;-70
2023/04/25 06:07:44;;;;;;;;;0.75;0.75;;;;;8.23;68.29;101311.69;5003478;28;10725;-71
2023/04/25 06:10:10;;;;;;;;;1.00;1.00;;;;;8.17;66.49;101320.41;5018646;28;10723;-70
2023/04/25 06:12:38;;;;;;;;;0.75;0.75;;;;;8.06;66.65;101318.91;5016236;28;10810;-70
2023/04/25 06:15:05;;;;;;;;;1.75;0.75;;;;;8.03;67.05;101326.44;4991236;28;10771;-70
2023/04/25 06:17:52;;;;;;;;;0.00;0.00;;;;;7.99;66.98;101319.72;5009794;28;10690;-69
2023/04/25 06:20:22;;;;;;;;;1.25;1.00;;;;;7.95;67.20;101329.94;4995662;28;10739;-70
2023/04/25 06:22:51;;;;;;;;;2.00;2.00;;;;;7.87;67.47;101325.41;4993598;28;10744;-70
2023/04/25 06:25:19;;;;;;;;;1.00;1.00;;;;;7.88;66.81;101324.38;4988935;28;10644;-66
2023/04/25 06:27:46;;;;;;;;;1.75;1.00;;;;;7.86;66.80;101334.44;4991432;28;10866;-70
2023/04/25 06:30:12;;;;;;;;;1.25;0.50;;;;;7.92;66.97;101339.13;5001729;28;11556;-70
2023/04/25 06:32:39;;;;;;;;;1.00;1.00;;;;;7.96;67.03;101344.16;5002548;28;10828;-70
2023/04/25 06:35:06;;;;;;;;;4.00;2.00;;;;;7.90;66.59;101343.84;4989004;28;11423;-70
2023/04/25 06:37:33;;;;;;;;;0.75;0.75;;;;;7.92;66.46;101344.50;4997092;28;10914;-70
2023/04/25 06:40:00;;;;;;;;;2.00;1.00;;;;;7.95;66.99;101346.03;4982206;28;10810;-68
2023/04/25 06:42:28;;;;;;;;;0.75;0.75;;;;;7.95;66.42;101345.19;4997611;28;10672;-70
2023/04/25 06:44:58;;;;;;;;;1.50;1.00;;;;;7.90;66.11;101346.50;4983302;28;10661;-69
2023/04/25 06:47:27;;;;;;;;;2.00;1.00;;;;;7.83;65.83;101358.06;5013332;28;10860;-69
2023/04/25 06:49:53;;;;;;;;;0.00;0.00;;;;;7.76;65.11;101359.69;5015859;28;11510;-68
2023/04/25 06:52:20;;;;;;;;;1.00;0.50;;;;;7.76;65.02;101360.53;4993345;28;11272;-70
2023/04/25 06:54:47;;;;;;;;;0.25;0.25;;;;;7.80;64.34;101358.38;5000199;28;10818;-69
2023/04/25 06:57:20;;;;;;;;;0.75;0.75;;;;;7.87;64.10;101354.88;4996749;28;10767;-69
2023/04/25 06:59:48;;;;;;;;;0.25;0.25;;;;;7.93;64.62;101359.56;4991467;28;10642;-69
2023/04/25 07:02:14;;;;;;;;;0.00;0.00;;;;;8.00;64.17;101362.44;4988457;28;11767;-68
2023/04/25 07:04:45;;;;;;;;;0.00;0.00;;;;;8.03;63.46;101358.59;4998845;28;10682;-69
2023/04/25 07:07:12;;;;;;;;;1.75;0.00;;;;;8.03;63.78;101366.66;4967281;28;10718;-71
2023/04/25 07:09:45;;;;;;;;;0.00;0.00;;;;;8.15;64.62;101368.00;4991882;28;10617;-69
2023/04/25 07:12:12;;;;;;;;;1.00;0.25;;;;;8.07;61.55;101368.00;5008018;28;10599;-69
2023/04/25 07:14:39;;;;;;;;;0.25;0.25;;;;;8.02;61.58;101370.31;5004869;28;11379;-70
2023/04/25 07:17:06;;;;;;;;;0.00;0.00;;;;;8.13;62.22;101372.69;5007790;28;10686;-70
2023/04/25 07:19:34;;;;;;;;;0.00;0.00;;;;;8.35;61.11;101377.41;4998311;28;10753;-68
2023/04/25 07:22:01;;;;;;;;;0.00;0.00;;;;;8.40;61.38;101375.09;4984598;28;10695;-69
2023/04/25 07:24:28;;;;;;;;;2.75;0.50;;;;;8.56;61.05;101373.44;4990506;28;10739;-69
2023/04/25 07:26:56;;;;;;;;;0.00;0.00;;;;;8.74;60.56;101375.91;4981525;28;10769;-69
2023/04/25 07:29:44;;;;;;;;;0.25;0.25;;;;;8.87;60.45;101371.72;4996137;28;10676;-70
2023/04/25 07:32:13;;;;;;;;;0.00;0.00;;;;;8.89;59.79;101369.69;4996199;28;10815;-70
2023/04/25 07:34:41;;;;;;;;;1.75;1.75;;;;;8.75;59.54;101378.47;5004455;28;10588;-70
2023/04/25 07:37:08;;;;;;;;;1.00;0.00;;;;;8.56;60.96;101378.78;4997967;28;10466;-70
2023/04/25 07:39:45;;;;;;;;;1.00;1.00;;;;;8.45;62.78;101398.72;4992435;28;10446;-70
2023/04/25 07:42:12;;;;;;;;;1.50;1.00;;;;;8.34;63.03;101396.34;5020419;28;10532;-68
2023/04/25 07:44:42;;;;;;;;;2.00;0.00;;;;;8.32;63.56;101406.41;4988128;28;10515;-68
2023/04/25 07:47:10;;;;;;;;;2.00;1.00;;;;;8.41;64.80;101403.59;4990818;28;10566;-68
2023/04/25 07:49:37;;;;;;;;;0.00;0.00;;;;;8.53;64.73;101412.16;5016621;28;10622;-68
2023/04/25 07:52:05;;;;;;;;;0.00;0.00;;;;;8.64;63.44;101437.84;5017812;28;10602;-69
2023/04/25 07:54:34;;;;;;;;;1.50;0.00;;;;;8.53;64.74;101422.88;5016679;28;10499;-69
2023/04/25 07:57:13;;;;;;;;;0.00;0.00;;;;;8.38;64.33;101420.00;4999194;28;10514;-67
2023/04/25 07:59:40;;;;;;;;;1.00;1.00;;;;;8.30;65.36;101427.19;4998048;28;11192;-69
2023/04/25 08:02:06;;;;;;;;;0.00;0.00;;;;;8.29;66.72;101428.19;4993201;28;10586;-69
2023/04/25 08:04:33;;;;;;;;;1.00;1.00;;;;;8.25;66.50;101430.34;4979885;28;10452;-68
2023/04/25 08:07:06;;;;;;;;;1.00;1.00;;;;;8.23;66.87;101437.75;4993671;28;10547;-69
2023/04/25 08:09:44;;;;;;;;;1.00;0.00;;;;;8.31;67.27;101439.59;5002512;28;10614;-67
2023/04/25 08:12:20;;;;;;;;;1.00;0.00;;;;;8.40;68.37;101439.47;4995686;28;10451;-69
2023/04/25 08:14:49;;;;;;;;;0.00;0.00;;;;;8.56;67.45;101437.81;5006539;28;10608;-68
2023/04/25 08:17:16;;;;;;;;;2.00;0.75;;;;;8.71;67.07;101440.66;4991388;28;10586;-67
2023/04/25 08:19:44;;;;;;;;;1.00;1.00;;;;;8.85;66.45;101437.31;5001414;28;10790;-69
2023/04/25 08:22:20;;;;;;;;;0.50;0.50;;;;;9.08;66.20;101443.69;5007704;28;10486;-69
2023/04/25 08:24:52;;;;;;;;;0.00;0.00;;;;;9.21;65.22;101447.72;5012105;28;10435;-71
2023/04/25 08:27:20;;;;;;;;;0.00;0.00;;;;;9.39;63.77;101453.69;5004835;28;10431;-69
2023/04/25 08:29:47;;;;;;;;;2.00;1.00;;;;;9.37;63.68;101451.19;5001808;28;10436;-70
2023/04/25 08:32:14;;;;;;;;;1.00;1.00;;;;;9.46;62.92;101454.69;5010737;28;10361;-70
2023/04/25 08:34:53;;;;;;;;;0.00;0.00;;;;;9.54;62.67;101465.44;4987126;28;10375;-72
2023/04/25 08:37:21;;;;;;;;;1.00;1.00;;;;;9.43;60.54;101464.94;4986223;28;10325;-71
2023/04/25 08:40:01;;;;;;;;;1.00;1.00;;;;;9.30;59.55;101474.38;4996871;28;10214;-68
2023/04/25 08:42:37;;;;;;;;;0.50;0.00;;;;;9.29;58.68;101467.34;5007553;28;10276;-70
2023/04/25 08:45:05;;;;;;;;;0.75;0.00;;;;;9.18;60.00;101464.16;4974532;28;10236;-67
2023/04/25 08:47:38;;;;;;;;;2.00;1.00;;;;;9.11;56.91;101483.63;5020441;28;10307;-71
2023/04/25 08:50:06;;;;;;;;;0.00;0.00;;;;;8.95;57.24;101486.31;5001814;28;10418;-69
2023/04/25 08:52:37;;;;;;;;;0.00;0.00;;;;;8.75;58.50;101484.97;5008810;28;10350;-70
2023/04/25 08:55:08;;;;;;;;;0.00;0.00;;;;;8.64;60.38;101489.66;4989936;28;10364;-69
2023/04/25 08:57:36;;;;;;;;;0.25;0.00;;;;;8.60;62.17;101501.72;5002044;28;10443;-69
2023/04/25 09:00:04;;;;;;;;;0.00;0.00;;;;;8.64;62.44;101500.41;5003438;28;10586;-70
2023/04/25 09:02:34;;;;;;;;;0.00;0.00;;;;;8.65;62.99;101506.59;5007913;28;10475;-70
2023/04/25 09:05:04;;;;;;;;;1.00;0.00;;;;;8.62;62.32;101509.59;5003978;28;10491;-67
2023/04/25 09:07:30;;;;;;;;;2.75;1.75;;;;;8.53;62.85;101514.13;5003065;28;10396;-68
2023/04/25 09:09:59;;;;;;;;;1.00;0.00;;;;;8.58;61.97;101527.03;5007133;28;10581;-67
2023/04/25 09:12:27;;;;;;;;;0.00;0.00;;;;;8.62;62.93;101525.72;5020578;28;10585;-67
2023/04/25 09:15:05;;;;;;;;;1.00;1.00;;;;;8.57;61.46;101530.72;4993669;28;10496;-69
2023/04/25 09:17:55;;;;;;;;;0.00;0.00;;;;;8.62;61.83;101531.06;5016968;28;11266;-69
2023/04/25 09:20:21;;;;;;;;;0.00;0.00;;;;;8.73;61.69;101536.13;5013065;28;10570;-69
2023/04/25 09:22:48;;;;;;;;;0.00;0.00;;;;;8.81;61.34;101527.25;5006374;28;10367;-69
2023/04/25 09:25:14;;;;;;;;;0.00;0.00;;;;;9.00;60.96;101540.38;4992465;28;10433;-69
2023/04/25 09:27:53;;;;;;;;;0.75;0.75;;;;;9.19;59.60;101541.88;4996738;28;10421;-69
2023/04/25 09:30:30;;;;;;;;;1.50;1.00;;;;;9.40;58.22;101533.31;5015494;28;10451;-69
2023/04/25 09:33:06;;;;;;;;;0.00;0.00;;;;;9.69;57.52;101532.75;5004784;28;11362;-67
2023/04/25 09:35:44;;;;;;;;;0.00;0.00;;;;;9.85;56.60;101537.28;4996142;28;10482;-70
2023/04/25 09:38:26;;;;;;;;;0.00;0.00;;;;;9.92;55.33;101532.84;4993328;28;10333;-70
2023/04/25 09:41:25;;;;;;;;;0.00;0.00;;;;;10.25;54.99;101539.00;4998406;28;10207;-68
2023/04/25 09:43:58;;;;;;;;;1.00;0.00;;;;;10.42;53.00;101547.00;4993288;28;10165;-67
2023/04/25 09:46:38;;;;;;;;;1.00;1.00;;;;;10.40;50.79;101550.69;4997007;28;10182;-70
2023/04/25 09:49:10;;;;;;;;;0.00;0.00;;;;;10.44;50.54;101550.34;5006792;28;10232;-70
2023/04/25 09:51:58;;;;;;;;;0.00;0.00;;;;;10.64;51.33;101556.97;5009375;28;10142;-69
2023/04/25 09:54:30;;;;;;;;;0.00;0.00;;;;;10.78;51.47;101558.06;4999213;28;10003;-69
2023/04/25 09:57:16;;;;;;;;;0.50;0.25;;;;;10.98;50.61;101556.59;4997925;28;10145;-69
2023/04/25 09:59:47;;;;;;;;;0.00;0.00;;;;;11.14;49.80;101561.84;5004477;28;9928;-69
2023/04/25 10:02:19;;;;;;;;;2.25;0.00;;;;;11.35;49.38;101557.66;4981171;28;9873;-68
2023/04/25 10:04:51;;;;;;;;;1.00;0.75;;;;;11.48;49.39;101567.81;4990369;28;9706;-70
2023/04/25 10:07:30;;;;;;;;;0.50;0.50;;;;;11.43;49.25;101559.44;4987376;28;9917;-70
2023/04/25 10:10:03;;;;;;;;;1.00;1.00;;;;;11.11;48.37;101556.81;4972191;28;9697;-70
2023/04/25 10:12:33;;;;;;;;;1.25;1.00;;;;;10.91;50.47;101566.41;5016616;28;9888;-70
2023/04/25 10:15:02;;;;;;;;;0.00;0.00;;;;;10.72;50.41;101581.16;5010326;28;9857;-73
2023/04/25 10:17:29;;;;;;;;;0.25;0.25;;;;;10.16;52.77;101602.72;5017297;28;9943;-68
2023/04/25 10:19:56;;;;;;;;;0.00;0.00;;;;;9.83;56.17;101604.66;5013856;28;9836;-69
2023/04/25 10:22:38;;;;;;;;;0.75;0.00;;;;;9.50;57.22;101613.75;4987849;28;10010;-70
2023/04/25 10:25:05;;;;;;;;;2.00;2.00;;;;;9.19;59.03;101600.97;5008483;28;10056;-69
2023/04/25 10:27:32;;;;;;;;;0.25;0.25;;;;;8.95;60.44;101617.03;4992001;28;10055;-71
2023/04/25 10:30:14;;;;;;;;;1.50;0.25;;;;;8.74;60.37;101604.06;4997214;28;10280;-68
2023/04/25 10:32:45;;;;;;;;;0.75;0.00;;;;;8.82;61.61;101604.09;5016606;28;10258;-69
2023/04/25 10:35:26;;;;;;;;;1.25;1.00;;;;;8.98;61.91;101604.13;5009280;28;10431;-68
2023/04/25 10:38:14;;;;;;;;;0.00;0.00;;;;;9.27;60.22;101611.72;4993995;28;10464;-69
2023/04/25 10:40:40;;;;;;;;;0.25;0.25;;;;;9.59;59.25;101604.66;5006803;28;10347;-69
2023/04/25 10:43:55;;;;;;;;;0.00;0.00;;;;;9.99;57.63;101608.31;5008082;28;10249;-69
2023/04/25 10:46:31;;;;;;;;;0.00;0.00;;;;;10.45;55.97;101613.91;4966527;28;10308;-70
2023/04/25 10:49:00;;;;;;;;;0.25;0.25;;;;;10.67;55.37;101597.00;5014331;28;10200;-69
2023/04/25 10:51:33;;;;;;;;;1.00;0.25;;;;;10.83;54.46;101604.16;4990782;28;10845;-71
2023/04/25 10:54:22;;;;;;;;;0.00;0.00;;;;;10.92;51.70;101596.84;5002260;28;10044;-69
2023/04/25 10:56:49;;;;;;;;;0.00;0.00;;;;;10.85;51.00;101605.63;5003921;28;9982;-67
2023/04/25 10:59:18;;;;;;;;;0.00;0.00;;;;;10.68;51.39;101614.00;5013630;28;10070;-67
2023/04/25 11:01:52;;;;;;;;;0.00;0.00;;;;;10.11;53.80;101648.13;5004405;28;10019;-67
2023/04/25 11:04:24;;;;;;;;;2.00;0.50;;;;;9.62;58.07;101658.09;4994823;28;10180;-66
2023/04/25 11:07:17;;;;;;;;;2.00;0.25;;;;;9.30;60.43;101658.91;5007916;28;10039;-66
2023/04/25 11:09:45;;;;;;;;;0.75;0.75;;;;;8.95;62.10;101647.41;5002157;28;10063;-66
2023/04/25 11:12:12;;;;;;;;;0.75;0.75;;;;;8.87;64.01;101629.47;5001507;28;10999;-66
2023/04/25 11:14:39;;;;;;;;;4.00;2.00;;;;;8.98;64.07;101630.16;5000667;28;10451;-67
2023/04/25 11:17:11;;;;;;;;;0.50;0.00;;;;;8.97;64.34;101625.78;5021521;28;10273;-63
2023/04/25 11:19:37;;;;;;;;;1.00;1.00;;;;;9.12;65.54;101622.31;5017869;28;10283;-67
2023/04/25 11:22:05;;;;;;;;;0.75;0.75;;;;;9.25;65.68;101629.03;5026503;28;10452;-66
2023/04/25 11:24:34;;;;;;;;;1.00;1.00;;;;;9.28;64.42;101628.72;5009838;28;10406;-66
2023/04/25 11:27:05;;;;;;;;;0.50;0.50;;;;;9.32;64.34;101622.84;5012120;28;10503;-67
2023/04/25 11:29:33;;;;;;;;;1.50;1.00;;;;;9.34;64.03;101626.16;5015964;28;10388;-66
2023/04/25 11:32:01;;;;;;;;;1.00;1.00;;;;;9.37;63.38;101625.84;5012779;28;10374;-67
2023/04/25 11:34:30;;;;;;;;;2.00;0.50;;;;;9.37;62.88;101628.53;4989627;28;10448;-67
2023/04/25 11:36:57;;;;;;;;;1.75;1.00;;;;;9.65;63.27;101638.97;5023961;28;10387;-68
2023/04/25 11:39:25;;;;;;;;;1.00;1.00;;;;;9.98;62.17;101630.84;5027544;28;10362;-67
2023/04/25 11:41:52;;;;;;;;;0.50;0.50;;;;;10.11;58.22;101632.00;5012028;28;10395;-68
2023/04/25 11:44:19;;;;;;;;;1.00;1.00;;;;;10.20;56.62;101631.97;5009622;28;10176;-67
2023/04/25 11:46:46;;;;;;;;;0.50;0.00;;;;;10.44;56.64;101625.69;4996722;28;10204;-68
2023/04/25 11:49:13;;;;;;;;;0.00;0.00;;;;;10.59;56.59;101632.88;5006206;28;10021;-67
2023/04/25 11:51:48;;;;;;;;;0.25;0.25;;;;;10.66;53.70;101633.03;5004262;28;10069;-67
2023/04/25 11:54:15;;;;;;;;;2.00;0.00;;;;;10.70;55.78;101625.44;5029572;28;10227;-68